sensor_id;sensor_type;location;lat;lon;timestamp;pressure;altitude;pressure_sealevel;temperature;humidity
57024;BME280;42916;54.346;18.562;2022-07-23T00:00:18;100523.25;;;17.77;100.00
57024;BME280;42916;54.346;18.562;2022-07-23T00:03:01;100526.58;;;17.78;100.00
57024;BME280;42916;54.346;18.562;2022-07-23T00:05:28;100523.48;;;17.76;100.00
57024;BME280;42916;54.346;18.562;2022-07-23T00:07:55;100528.55;;;17.73;100.00
57024;BME280;42916;54.346;18.562;2022-07-23T00:10:21;100528.48;;;17.69;100.00
57024;BME280;42916;54.346;18.562;2022-07-23T00:12:48;100526.71;;;17.67;100.00
57024;BME280;42916;54.346;18.562;2022-07-23T00:15:15;100530.33;;;17.65;100.00
57024;BME280;42916;54.346;18.562;2022-07-23T00:17:42;100532.41;;;17.62;100.00
57024;BME280;42916;54.346;18.562;2022-07-23T00:20:08;100530.95;;;17.60;100.00
57024;BME280;42916;54.346;18.562;2022-07-23T00:22:35;100535.41;;;17.56;100.00
57024;BME280;42916;54.346;18.562;2022-07-23T00:25:02;100538.95;;;17.52;100.00
57024;BME280;42916;54.346;18.562;2022-07-23T00:27:28;100539.67;;;17.51;100.00
57024;BME280;42916;54.346;18.562;2022-07-23T00:29:55;100538.31;;;17.53;100.00
57024;BME280;42916;54.346;18.562;2022-07-23T00:32:22;100543.67;;;17.56;100.00
57024;BME280;42916;54.346;18.562;2022-07-23T00:34:48;100537.23;;;17.58;100.00
57024;BME280;42916;54.346;18.562;2022-07-23T00:37:15;100538.56;;;17.59;100.00
57024;BME280;42916;54.346;18.562;2022-07-23T00:39:41;100536.09;;;17.58;100.00
57024;BME280;42916;54.346;18.562;2022-07-23T00:42:08;100535.25;;;17.59;100.00
57024;BME280;42916;54.346;18.562;2022-07-23T00:44:34;100536.29;;;17.60;100.00
57024;BME280;42916;54.346;18.562;2022-07-23T00:47:01;100533.09;;;17.60;100.00
57024;BME280;42916;54.346;18.562;2022-07-23T00:49:29;100530.84;;;17.63;100.00
57024;BME280;42916;54.346;18.562;2022-07-23T00:51:57;100530.15;;;17.66;100.00
57024;BME280;42916;54.346;18.562;2022-07-23T00:54:25;100530.13;;;17.67;100.00
57024;BME280;42916;54.346;18.562;2022-07-23T00:56:52;100531.61;;;17.66;100.00
57024;BME280;42916;54.346;18.562;2022-07-23T00:59:19;100530.72;;;17.70;100.00
57024;BME280;42916;54.346;18.562;2022-07-23T01:01:46;100533.45;;;17.76;100.00
57024;BME280;42916;54.346;18.562;2022-07-23T01:04:16;100534.59;;;17.83;100.00
57024;BME280;42916;54.346;18.562;2022-07-23T01:06:43;100532.60;;;17.89;100.00
57024;BME280;42916;54.346;18.562;2022-07-23T01:09:11;100536.11;;;17.93;100.00
57024;BME280;42916;54.346;18.562;2022-07-23T01:11:38;100534.48;;;17.95;100.00
57024;BME280;42916;54.346;18.562;2022-07-23T01:14:16;100530.84;;;17.99;100.00
57024;BME280;42916;54.346;18.562;2022-07-23T01:16:46;100523.89;;;18.05;100.00
57024;BME280;42916;54.346;18.562;2022-07-23T01:19:14;100514.79;;;18.07;100.00
57024;BME280;42916;54.346;18.562;2022-07-23T01:21:43;100517.87;;;18.06;100.00
57024;BME280;42916;54.346;18.562;2022-07-23T01:24:11;100517.88;;;18.03;100.00
57024;BME280;42916;54.346;18.562;2022-07-23T01:26:44;100519.94;;;17.99;100.00
57024;BME280;42916;54.346;18.562;2022-07-23T01:29:13;100518.31;;;17.94;100.00
57024;BME280;42916;54.346;18.562;2022-07-23T01:31:42;100517.46;;;17.89;100.00
57024;BME280;42916;54.346;18.562;2022-07-23T01:34:09;100514.98;;;17.85;100.00
57024;BME280;42916;54.346;18.562;2022-07-23T01:36:37;100515.38;;;17.84;100.00
57024;BME280;42916;54.346;18.562;2022-07-23T01:39:05;100509.91;;;17.81;100.00
57024;BME280;42916;54.346;18.562;2022-07-23T01:41:33;100507.41;;;17.77;100.00
57024;BME280;42916;54.346;18.562;2022-07-23T01:44:01;100504.68;;;17.75;100.00
57024;BME280;42916;54.346;18.562;2022-07-23T01:46:29;100504.05;;;17.70;100.00
57024;BME280;42916;54.346;18.562;2022-07-23T01:48:56;100501.56;;;17.63;100.00
57024;BME280;42916;54.346;18.562;2022-07-23T01:51:43;100495.13;;;17.60;100.00
57024;BME280;42916;54.346;18.562;2022-07-23T01:54:38;100496.59;;;17.55;100.00
57024;BME280;42916;54.346;18.562;2022-07-23T01:57:07;100497.63;;;17.49;100.00
57024;BME280;42916;54.346;18.562;2022-07-23T01:59:34;100492.23;;;17.42;100.00
57024;BME280;42916;54.346;18.562;2022-07-23T02:02:02;100490.84;;;17.36;100.00
57024;BME280;42916;54.346;18.562;2022-07-23T02:04:32;100491.41;;;17.27;100.00
57024;BME280;42916;54.346;18.562;2022-07-23T02:07:04;100489.23;;;17.18;100.00
57024;BME280;42916;54.346;18.562;2022-07-23T02:09:30;100490.21;;;17.12;100.00
57024;BME280;42916;54.346;18.562;2022-07-23T02:11:57;100494.39;;;17.11;100.00
57024;BME280;42916;54.346;18.562;2022-07-23T02:14:25;100495.29;;;17.10;100.00
57024;BME280;42916;54.346;18.562;2022-07-23T02:16:52;100494.27;;;17.12;100.00
57024;BME280;42916;54.346;18.562;2022-07-23T02:19:19;100498.36;;;17.15;100.00
57024;BME280;42916;54.346;18.562;2022-07-23T02:21:45;100492.64;;;17.15;100.00
57024;BME280;42916;54.346;18.562;2022-07-23T02:24:12;100493.67;;;17.16;100.00
57024;BME280;42916;54.346;18.562;2022-07-23T02:26:41;100492.77;;;17.20;100.00
57024;BME280;42916;54.346;18.562;2022-07-23T02:29:08;100491.61;;;17.25;100.00
57024;BME280;42916;54.346;18.562;2022-07-23T02:31:34;100494.10;;;17.31;100.00
57024;BME280;42916;54.346;18.562;2022-07-23T02:34:02;100497.45;;;17.35;100.00
57024;BME280;42916;54.346;18.562;2022-07-23T02:36:29;100497.15;;;17.37;100.00
57024;BME280;42916;54.346;18.562;2022-07-23T02:38:56;100493.11;;;17.38;100.00
57024;BME280;42916;54.346;18.562;2022-07-23T02:41:23;100490.81;;;17.41;100.00
57024;BME280;42916;54.346;18.562;2022-07-23T02:43:50;100487.52;;;17.44;100.00
57024;BME280;42916;54.346;18.562;2022-07-23T02:46:17;100482.08;;;17.44;100.00
57024;BME280;42916;54.346;18.562;2022-07-23T02:48:43;100482.30;;;17.43;100.00
57024;BME280;42916;54.346;18.562;2022-07-23T02:51:10;100482.23;;;17.38;100.00
57024;BME280;42916;54.346;18.562;2022-07-23T02:53:41;100481.85;;;17.34;100.00
57024;BME280;42916;54.346;18.562;2022-07-23T02:56:08;100480.23;;;17.32;100.00
57024;BME280;42916;54.346;18.562;2022-07-23T02:58:35;100478.21;;;17.27;100.00
57024;BME280;42916;54.346;18.562;2022-07-23T03:01:02;100480.81;;;17.22;100.00
57024;BME280;42916;54.346;18.562;2022-07-23T03:03:29;100478.86;;;17.17;100.00
57024;BME280;42916;54.346;18.562;2022-07-23T03:05:56;100479.36;;;17.09;100.00
57024;BME280;42916;54.346;18.562;2022-07-23T03:08:24;100480.95;;;17.02;100.00
57024;BME280;42916;54.346;18.562;2022-07-23T03:10:52;100477.85;;;16.95;100.00
57024;BME280;42916;54.346;18.562;2022-07-23T03:13:19;100477.91;;;16.87;100.00
57024;BME280;42916;54.346;18.562;2022-07-23T03:15:46;100479.25;;;16.86;100.00
57024;BME280;42916;54.346;18.562;2022-07-23T03:18:12;100482.05;;;16.84;100.00
57024;BME280;42916;54.346;18.562;2022-07-23T03:20:39;100480.71;;;16.81;100.00
57024;BME280;42916;54.346;18.562;2022-07-23T03:23:06;100486.13;;;16.78;100.00
57024;BME280;42916;54.346;18.562;2022-07-23T03:25:33;100481.45;;;16.78;100.00
57024;BME280;42916;54.346;18.562;2022-07-23T03:27:59;100474.44;;;16.77;100.00
57024;BME280;42916;54.346;18.562;2022-07-23T03:30:27;100473.35;;;16.77;100.00
57024;BME280;42916;54.346;18.562;2022-07-23T03:32:54;100477.83;;;16.79;100.00
57024;BME280;42916;54.346;18.562;2022-07-23T03:35:21;100481.04;;;16.81;100.00
57024;BME280;42916;54.346;18.562;2022-07-23T03:38:04;100481.19;;;16.81;100.00
57024;BME280;42916;54.346;18.562;2022-07-23T03:40:31;100485.14;;;16.83;100.00
57024;BME280;42916;54.346;18.562;2022-07-23T03:42:57;100476.02;;;16.83;100.00
57024;BME280;42916;54.346;18.562;2022-07-23T03:45:24;100471.56;;;16.85;100.00
57024;BME280;42916;54.346;18.562;2022-07-23T03:47:51;100473.35;;;16.87;100.00
57024;BME280;42916;54.346;18.562;2022-07-23T03:50:18;100476.04;;;16.91;100.00
57024;BME280;42916;54.346;18.562;2022-07-23T03:52:44;100475.21;;;16.91;100.00
57024;BME280;42916;54.346;18.562;2022-07-23T03:55:12;100468.23;;;16.91;100.00
57024;BME280;42916;54.346;18.562;2022-07-23T03:57:39;100468.60;;;16.92;100.00
57024;BME280;42916;54.346;18.562;2022-07-23T04:00:07;100471.14;;;16.97;100.00
57024;BME280;42916;54.346;18.562;2022-07-23T04:02:40;100473.30;;;17.02;100.00
57024;BME280;42916;54.346;18.562;2022-07-23T04:05:07;100477.17;;;17.05;100.00
57024;BME280;42916;54.346;18.562;2022-07-23T04:07:34;100476.44;;;17.06;100.00
57024;BME280;42916;54.346;18.562;2022-07-23T04:10:01;100473.38;;;17.09;100.00
57024;BME280;42916;54.346;18.562;2022-07-23T04:12:28;100470.89;;;17.13;100.00
57024;BME280;42916;54.346;18.562;2022-07-23T04:14:55;100468.56;;;17.19;100.00
57024;BME280;42916;54.346;18.562;2022-07-23T04:17:22;100460.19;;;17.23;100.00
57024;BME280;42916;54.346;18.562;2022-07-23T04:19:49;100460.94;;;17.27;100.00
57024;BME280;42916;54.346;18.562;2022-07-23T04:22:17;100465.70;;;17.33;100.00
57024;BME280;42916;54.346;18.562;2022-07-23T04:24:44;100468.85;;;17.39;100.00
57024;BME280;42916;54.346;18.562;2022-07-23T04:27:11;100467.02;;;17.44;100.00
57024;BME280;42916;54.346;18.562;2022-07-23T04:29:37;100468.98;;;17.51;100.00
57024;BME280;42916;54.346;18.562;2022-07-23T04:32:05;100462.29;;;17.56;100.00
57024;BME280;42916;54.346;18.562;2022-07-23T04:34:31;100454.00;;;17.59;100.00
57024;BME280;42916;54.346;18.562;2022-07-23T04:36:59;100450.35;;;17.63;100.00
57024;BME280;42916;54.346;18.562;2022-07-23T04:39:26;100446.70;;;17.65;100.00
57024;BME280;42916;54.346;18.562;2022-07-23T04:41:52;100445.42;;;17.68;100.00
57024;BME280;42916;54.346;18.562;2022-07-23T04:44:19;100443.77;;;17.74;100.00
57024;BME280;42916;54.346;18.562;2022-07-23T04:46:46;100440.67;;;17.79;100.00
57024;BME280;42916;54.346;18.562;2022-07-23T04:49:13;100445.46;;;17.85;100.00
57024;BME280;42916;54.346;18.562;2022-07-23T04:51:40;100446.33;;;17.90;100.00
57024;BME280;42916;54.346;18.562;2022-07-23T04:54:07;100438.52;;;17.93;100.00
57024;BME280;42916;54.346;18.562;2022-07-23T04:56:34;100442.52;;;17.95;100.00
57024;BME280;42916;54.346;18.562;2022-07-23T04:59:01;100438.77;;;17.97;100.00
57024;BME280;42916;54.346;18.562;2022-07-23T05:01:28;100439.48;;;18.03;100.00
57024;BME280;42916;54.346;18.562;2022-07-23T05:03:55;100433.41;;;18.08;99.77
57024;BME280;42916;54.346;18.562;2022-07-23T05:06:24;100438.57;;;18.11;99.49
57024;BME280;42916;54.346;18.562;2022-07-23T05:08:50;100441.27;;;18.17;99.53
57024;BME280;42916;54.346;18.562;2022-07-23T05:11:18;100436.35;;;18.20;99.10
57024;BME280;42916;54.346;18.562;2022-07-23T05:13:45;100436.84;;;18.20;98.69
57024;BME280;42916;54.346;18.562;2022-07-23T05:16:11;100439.80;;;18.21;98.34
57024;BME280;42916;54.346;18.562;2022-07-23T05:18:39;100437.90;;;18.23;97.87
57024;BME280;42916;54.346;18.562;2022-07-23T05:21:06;100436.35;;;18.23;97.53
57024;BME280;42916;54.346;18.562;2022-07-23T05:23:34;100422.20;;;18.25;97.59
57024;BME280;42916;54.346;18.562;2022-07-23T05:26:00;100424.17;;;18.26;97.40
57024;BME280;42916;54.346;18.562;2022-07-23T05:28:29;100427.83;;;18.30;97.41
57024;BME280;42916;54.346;18.562;2022-07-23T05:30:56;100433.30;;;18.33;97.01
57024;BME280;42916;54.346;18.562;2022-07-23T05:33:23;100437.45;;;18.37;96.77
57024;BME280;42916;54.346;18.562;2022-07-23T05:35:51;100435.63;;;18.39;96.47
57024;BME280;42916;54.346;18.562;2022-07-23T05:38:29;100435.01;;;18.49;96.49
57024;BME280;42916;54.346;18.562;2022-07-23T05:40:58;100434.85;;;18.59;96.30
57024;BME280;42916;54.346;18.562;2022-07-23T05:43:26;100436.85;;;18.63;95.64
57024;BME280;42916;54.346;18.562;2022-07-23T05:45:53;100427.89;;;18.68;95.24
57024;BME280;42916;54.346;18.562;2022-07-23T05:48:20;100423.86;;;18.77;95.52
57024;BME280;42916;54.346;18.562;2022-07-23T05:51:08;100432.20;;;18.85;94.36
57024;BME280;42916;54.346;18.562;2022-07-23T05:53:35;100426.38;;;18.84;93.36
57024;BME280;42916;54.346;18.562;2022-07-23T05:56:22;100427.42;;;18.83;93.13
57024;BME280;42916;54.346;18.562;2022-07-23T05:58:49;100427.70;;;18.87;93.00
57024;BME280;42916;54.346;18.562;2022-07-23T06:01:17;100427.14;;;18.88;92.87
57024;BME280;42916;54.346;18.562;2022-07-23T06:03:49;100420.42;;;18.92;93.00
57024;BME280;42916;54.346;18.562;2022-07-23T06:06:16;100422.77;;;18.97;92.48
57024;BME280;42916;54.346;18.562;2022-07-23T06:08:43;100426.17;;;19.01;91.62
57024;BME280;42916;54.346;18.562;2022-07-23T06:11:12;100424.32;;;19.07;91.77
57024;BME280;42916;54.346;18.562;2022-07-23T06:13:38;100419.60;;;19.13;90.88
57024;BME280;42916;54.346;18.562;2022-07-23T06:16:05;100417.70;;;19.16;90.00
57024;BME280;42916;54.346;18.562;2022-07-23T06:18:32;100415.36;;;19.17;89.79
57024;BME280;42916;54.346;18.562;2022-07-23T06:20:59;100414.45;;;19.23;88.85
57024;BME280;42916;54.346;18.562;2022-07-23T06:23:25;100410.69;;;19.24;87.73
57024;BME280;42916;54.346;18.562;2022-07-23T06:25:53;100406.41;;;19.25;87.91
57024;BME280;42916;54.346;18.562;2022-07-23T06:28:20;100405.10;;;19.31;87.83
57024;BME280;42916;54.346;18.562;2022-07-23T06:30:47;100399.98;;;19.44;88.46
57024;BME280;42916;54.346;18.562;2022-07-23T06:33:15;100391.15;;;19.59;88.41
57024;BME280;42916;54.346;18.562;2022-07-23T06:35:41;100387.56;;;19.69;86.66
57024;BME280;42916;54.346;18.562;2022-07-23T06:38:08;100392.69;;;19.75;86.91
57024;BME280;42916;54.346;18.562;2022-07-23T06:40:35;100411.53;;;19.83;86.38
57024;BME280;42916;54.346;18.562;2022-07-23T06:43:02;100420.75;;;19.89;85.89
57024;BME280;42916;54.346;18.562;2022-07-23T06:45:29;100420.73;;;19.98;85.41
57024;BME280;42916;54.346;18.562;2022-07-23T06:47:55;100419.17;;;20.06;84.29
57024;BME280;42916;54.346;18.562;2022-07-23T06:50:22;100415.48;;;20.16;84.41
57024;BME280;42916;54.346;18.562;2022-07-23T06:52:49;100419.40;;;20.25;83.31
57024;BME280;42916;54.346;18.562;2022-07-23T06:55:16;100422.43;;;20.38;82.79
57024;BME280;42916;54.346;18.562;2022-07-23T06:57:45;100422.36;;;20.51;82.22
57024;BME280;42916;54.346;18.562;2022-07-23T07:00:12;100425.30;;;20.69;82.13
57024;BME280;42916;54.346;18.562;2022-07-23T07:02:39;100426.45;;;20.89;80.86
57024;BME280;42916;54.346;18.562;2022-07-23T07:05:06;100427.95;;;21.08;79.98
57024;BME280;42916;54.346;18.562;2022-07-23T07:07:34;100427.16;;;21.28;79.30
57024;BME280;42916;54.346;18.562;2022-07-23T07:10:04;100427.36;;;21.41;78.64
57024;BME280;42916;54.346;18.562;2022-07-23T07:12:31;100422.78;;;21.62;77.71
57024;BME280;42916;54.346;18.562;2022-07-23T07:14:59;100423.07;;;21.73;77.13
57024;BME280;42916;54.346;18.562;2022-07-23T07:17:25;100427.86;;;21.83;76.10
57024;BME280;42916;54.346;18.562;2022-07-23T07:19:52;100422.27;;;21.91;75.62
57024;BME280;42916;54.346;18.562;2022-07-23T07:22:19;100425.84;;;21.92;74.15
57024;BME280;42916;54.346;18.562;2022-07-23T07:24:46;100431.05;;;21.87;74.38
57024;BME280;42916;54.346;18.562;2022-07-23T07:27:13;100425.77;;;21.88;74.38
57024;BME280;42916;54.346;18.562;2022-07-23T07:29:39;100424.99;;;21.85;72.70
57024;BME280;42916;54.346;18.562;2022-07-23T07:32:06;100418.96;;;21.73;72.73
57024;BME280;42916;54.346;18.562;2022-07-23T07:34:33;100413.75;;;21.73;73.10
57024;BME280;42916;54.346;18.562;2022-07-23T07:36:59;100412.42;;;21.83;73.44
57024;BME280;42916;54.346;18.562;2022-07-23T07:39:26;100411.23;;;21.96;73.37
57024;BME280;42916;54.346;18.562;2022-07-23T07:41:53;100417.23;;;22.05;73.08
57024;BME280;42916;54.346;18.562;2022-07-23T07:44:19;100418.20;;;22.19;72.79
57024;BME280;42916;54.346;18.562;2022-07-23T07:46:46;100417.59;;;22.31;72.09
57024;BME280;42916;54.346;18.562;2022-07-23T07:49:13;100415.13;;;22.39;71.32
57024;BME280;42916;54.346;18.562;2022-07-23T07:51:40;100414.92;;;22.40;70.85
57024;BME280;42916;54.346;18.562;2022-07-23T07:54:06;100414.42;;;22.45;70.37
57024;BME280;42916;54.346;18.562;2022-07-23T07:56:33;100417.88;;;22.36;69.45
57024;BME280;42916;54.346;18.562;2022-07-23T07:59:00;100411.74;;;22.20;68.33
57024;BME280;42916;54.346;18.562;2022-07-23T08:01:27;100413.98;;;22.15;69.03
57024;BME280;42916;54.346;18.562;2022-07-23T08:03:54;100416.06;;;22.17;68.55
57024;BME280;42916;54.346;18.562;2022-07-23T08:06:20;100414.37;;;22.30;69.13
57024;BME280;42916;54.346;18.562;2022-07-23T08:08:47;100408.23;;;22.42;68.76
57024;BME280;42916;54.346;18.562;2022-07-23T08:11:14;100408.42;;;22.55;67.89
57024;BME280;42916;54.346;18.562;2022-07-23T08:13:41;100410.56;;;22.74;67.84
57024;BME280;42916;54.346;18.562;2022-07-23T08:16:07;100410.79;;;22.95;67.47
57024;BME280;42916;54.346;18.562;2022-07-23T08:18:34;100398.97;;;23.11;66.63
57024;BME280;42916;54.346;18.562;2022-07-23T08:21:01;100404.90;;;23.28;66.30
57024;BME280;42916;54.346;18.562;2022-07-23T08:23:27;100406.84;;;23.42;65.95
57024;BME280;42916;54.346;18.562;2022-07-23T08:25:54;100412.63;;;23.58;65.42
57024;BME280;42916;54.346;18.562;2022-07-23T08:28:23;100419.20;;;23.72;64.78
57024;BME280;42916;54.346;18.562;2022-07-23T08:30:49;100417.47;;;23.79;64.44
57024;BME280;42916;54.346;18.562;2022-07-23T08:33:17;100413.27;;;23.90;64.19
57024;BME280;42916;54.346;18.562;2022-07-23T08:35:46;100412.66;;;24.08;63.92
57024;BME280;42916;54.346;18.562;2022-07-23T08:38:17;100408.41;;;24.21;62.79
57024;BME280;42916;54.346;18.562;2022-07-23T08:40:50;100405.73;;;24.34;62.61
57024;BME280;42916;54.346;18.562;2022-07-23T08:43:20;100403.91;;;24.50;61.97
57024;BME280;42916;54.346;18.562;2022-07-23T08:45:50;100403.80;;;24.51;60.31
57024;BME280;42916;54.346;18.562;2022-07-23T08:48:22;100407.22;;;24.26;58.73
57024;BME280;42916;54.346;18.562;2022-07-23T08:50:55;100404.15;;;24.09;60.35
57024;BME280;42916;54.346;18.562;2022-07-23T08:53:24;100406.02;;;24.06;60.60
57024;BME280;42916;54.346;18.562;2022-07-23T08:55:53;100402.31;;;23.99;60.66
57024;BME280;42916;54.346;18.562;2022-07-23T08:58:21;100405.61;;;23.89;59.83
57024;BME280;42916;54.346;18.562;2022-07-23T09:00:48;100406.37;;;23.77;60.66
57024;BME280;42916;54.346;18.562;2022-07-23T09:03:21;100400.51;;;23.83;61.01
57024;BME280;42916;54.346;18.562;2022-07-23T09:05:53;100398.28;;;24.00;60.95
57024;BME280;42916;54.346;18.562;2022-07-23T09:08:27;100398.27;;;24.19;60.21
57024;BME280;42916;54.346;18.562;2022-07-23T09:11:05;100399.19;;;24.23;59.49
57024;BME280;42916;54.346;18.562;2022-07-23T09:13:34;100401.80;;;24.23;59.76
57024;BME280;42916;54.346;18.562;2022-07-23T09:16:07;100400.98;;;24.37;60.19
57024;BME280;42916;54.346;18.562;2022-07-23T09:21:15;100394.66;;;24.58;59.25
57024;BME280;42916;54.346;18.562;2022-07-23T09:29:39;100399.88;;;24.54;58.72
57024;BME280;42916;54.346;18.562;2022-07-23T09:31:47;100395.05;;;24.63;59.07
57024;BME280;42916;54.346;18.562;2022-07-23T09:34:17;100393.20;;;24.80;58.94
57024;BME280;42916;54.346;18.562;2022-07-23T09:36:45;100389.23;;;24.81;58.38
57024;BME280;42916;54.346;18.562;2022-07-23T09:39:13;100384.06;;;24.70;57.59
57024;BME280;42916;54.346;18.562;2022-07-23T09:41:45;100384.23;;;24.53;57.50
57024;BME280;42916;54.346;18.562;2022-07-23T09:44:18;100377.65;;;24.43;57.75
57024;BME280;42916;54.346;18.562;2022-07-23T09:46:46;100368.66;;;24.42;58.19
57024;BME280;42916;54.346;18.562;2022-07-23T09:51:47;100378.50;;;25.08;58.52
57024;BME280;42916;54.346;18.562;2022-07-23T09:57:08;100373.61;;;25.56;56.29
57024;BME280;42916;54.346;18.562;2022-07-23T09:59:40;100376.04;;;25.73;55.83
57024;BME280;42916;54.346;18.562;2022-07-23T10:02:09;100379.48;;;25.90;55.07
57024;BME280;42916;54.346;18.562;2022-07-23T10:04:43;100383.19;;;25.85;53.52
57024;BME280;42916;54.346;18.562;2022-07-23T10:07:10;100387.40;;;25.72;53.63
57024;BME280;42916;54.346;18.562;2022-07-23T10:09:53;100390.43;;;25.57;54.06
57024;BME280;42916;54.346;18.562;2022-07-23T10:12:43;100391.77;;;25.42;54.21
57024;BME280;42916;54.346;18.562;2022-07-23T10:15:16;100399.77;;;25.09;53.63
57024;BME280;42916;54.346;18.562;2022-07-23T10:17:43;100402.89;;;24.78;54.40
57024;BME280;42916;54.346;18.562;2022-07-23T10:20:10;100414.17;;;24.45;54.36
57024;BME280;42916;54.346;18.562;2022-07-23T10:22:39;100409.98;;;24.18;55.53
57024;BME280;42916;54.346;18.562;2022-07-23T10:34:16;100431.16;;;23.57;57.51
57024;BME280;42916;54.346;18.562;2022-07-23T10:36:59;100416.15;;;23.45;58.06
57024;BME280;42916;54.346;18.562;2022-07-23T10:39:31;100412.77;;;23.46;58.53
57024;BME280;42916;54.346;18.562;2022-07-23T10:44:47;100414.08;;;23.57;58.73
57024;BME280;42916;54.346;18.562;2022-07-23T10:47:30;100419.98;;;23.52;58.83
57024;BME280;42916;54.346;18.562;2022-07-23T10:50:28;100421.20;;;23.47;59.03
57024;BME280;42916;54.346;18.562;2022-07-23T10:53:11;100419.15;;;23.39;59.29
57024;BME280;42916;54.346;18.562;2022-07-23T10:58:08;100423.75;;;23.38;60.10
57024;BME280;42916;54.346;18.562;2022-07-23T11:00:36;100423.05;;;23.39;60.29
57024;BME280;42916;54.346;18.562;2022-07-23T11:03:05;100425.03;;;23.39;60.70
57024;BME280;42916;54.346;18.562;2022-07-23T11:05:51;100424.45;;;23.36;60.32
57024;BME280;42916;54.346;18.562;2022-07-23T11:08:19;100427.47;;;23.23;60.32
57024;BME280;42916;54.346;18.562;2022-07-23T11:13:46;100404.27;;;23.00;61.09
57024;BME280;42916;54.346;18.562;2022-07-23T11:16:14;100387.20;;;22.96;61.15
57024;BME280;42916;54.346;18.562;2022-07-23T11:24:12;100443.98;;;22.73;61.97
57024;BME280;42916;54.346;18.562;2022-07-23T11:32:00;100437.19;;;22.38;63.85
57024;BME280;42916;54.346;18.562;2022-07-23T11:34:43;100437.38;;;22.27;64.48
57024;BME280;42916;54.346;18.562;2022-07-23T11:39:55;100435.78;;;22.02;66.43
57024;BME280;42916;54.346;18.562;2022-07-23T11:42:22;100445.51;;;21.87;67.23
57024;BME280;42916;54.346;18.562;2022-07-23T11:44:51;100442.58;;;21.70;68.45
57024;BME280;42916;54.346;18.562;2022-07-23T11:47:23;100446.92;;;21.55;69.44
57024;BME280;42916;54.346;18.562;2022-07-23T11:49:54;100444.83;;;21.44;70.50
57024;BME280;42916;54.346;18.562;2022-07-23T11:52:21;100449.70;;;21.37;71.33
57024;BME280;42916;54.346;18.562;2022-07-23T11:55:00;100450.75;;;21.35;70.99
57024;BME280;42916;54.346;18.562;2022-07-23T11:57:34;100453.75;;;21.32;71.18
57024;BME280;42916;54.346;18.562;2022-07-23T12:00:08;100457.01;;;21.21;70.55
57024;BME280;42916;54.346;18.562;2022-07-23T12:02:42;100454.54;;;21.14;70.21
57024;BME280;42916;54.346;18.562;2022-07-23T12:07:44;100451.64;;;21.04;70.14
57024;BME280;42916;54.346;18.562;2022-07-23T12:12:51;100441.12;;;20.97;70.18
57024;BME280;42916;54.346;18.562;2022-07-23T12:15:22;100434.13;;;20.93;70.60
57024;BME280;42916;54.346;18.562;2022-07-23T12:17:51;100417.46;;;20.84;70.93
57024;BME280;42916;54.346;18.562;2022-07-23T12:20:22;100391.56;;;20.72;71.29
57024;BME280;42916;54.346;18.562;2022-07-23T12:22:52;100366.55;;;20.64;72.15
57024;BME280;42916;54.346;18.562;2022-07-23T12:25:24;100360.98;;;20.54;72.89
57024;BME280;42916;54.346;18.562;2022-07-23T12:28:19;100357.52;;;20.41;73.85
57024;BME280;42916;54.346;18.562;2022-07-23T12:30:54;100374.86;;;20.30;75.38
57024;BME280;42916;54.346;18.562;2022-07-23T12:33:26;100402.09;;;20.30;76.44
57024;BME280;42916;54.346;18.562;2022-07-23T12:35:55;100435.21;;;20.29;78.11
57024;BME280;42916;54.346;18.562;2022-07-23T12:38:24;100427.40;;;20.28;79.39
57024;BME280;42916;54.346;18.562;2022-07-23T12:40:56;100420.40;;;20.33;80.09
57024;BME280;42916;54.346;18.562;2022-07-23T12:51:09;100430.63;;;20.79;78.88
57024;BME280;42916;54.346;18.562;2022-07-23T12:53:43;100431.79;;;21.06;78.57
57024;BME280;42916;54.346;18.562;2022-07-23T12:56:14;100437.98;;;21.45;78.27
57024;BME280;42916;54.346;18.562;2022-07-23T13:06:52;100435.88;;;23.02;72.13
57024;BME280;42916;54.346;18.562;2022-07-23T13:09:22;100438.14;;;23.35;71.89
57024;BME280;42916;54.346;18.562;2022-07-23T13:11:51;100436.16;;;23.59;71.65
57024;BME280;42916;54.346;18.562;2022-07-23T13:14:19;100439.38;;;23.88;71.05
57024;BME280;42916;54.346;18.562;2022-07-23T13:16:47;100440.55;;;24.40;70.04
57024;BME280;42916;54.346;18.562;2022-07-23T13:19:15;100437.55;;;24.84;68.58
57024;BME280;42916;54.346;18.562;2022-07-23T13:21:42;100434.98;;;25.36;67.50
57024;BME280;42916;54.346;18.562;2022-07-23T13:24:10;100423.13;;;25.75;65.92
57024;BME280;42916;54.346;18.562;2022-07-23T13:26:39;100415.60;;;25.82;63.08
57024;BME280;42916;54.346;18.562;2022-07-23T13:29:06;100405.79;;;25.54;62.01
57024;BME280;42916;54.346;18.562;2022-07-23T13:31:33;100408.30;;;25.47;62.30
57024;BME280;42916;54.346;18.562;2022-07-23T13:34:01;100407.11;;;25.32;61.25
57024;BME280;42916;54.346;18.562;2022-07-23T13:36:28;100404.55;;;25.29;61.48
57024;BME280;42916;54.346;18.562;2022-07-23T13:38:55;100401.58;;;25.28;61.54
57024;BME280;42916;54.346;18.562;2022-07-23T13:41:21;100397.30;;;25.40;61.40
57024;BME280;42916;54.346;18.562;2022-07-23T13:43:49;100404.91;;;25.85;61.11
57024;BME280;42916;54.346;18.562;2022-07-23T13:46:16;100402.21;;;26.32;60.12
57024;BME280;42916;54.346;18.562;2022-07-23T13:48:42;100395.35;;;26.89;59.25